Aérodrome :
LOGIN :

S'inscrire | Disclaimer

   EN    FR    IT 

 










Légende :    VFR   VFR Marginal   IFR   IFR Intensif   IFR Très Intensif
Visi : 
Plafond : 
>= 8 km
>= 3000ft
5 à 8 km
1000 à 3000 ft
1500m à 5 km
500 à 1000 ft
800 à 1500m
200 à 500 ft
< 800m
< 200 ft
Symboles :   Orages  Brouillard  Fortes neiges  Fortes précipitations  Vent > 20 kt
SIGMETs :   Divers  Orages  Givrage  Turbulence  Onde Orograph.  Cendres Volcan.







- Altitude de l'aérodrome : 659 ft
- Code IATA : LGG


EBLG - Liège

DERNIER METAR :
  • 230450Z 14011KT 8000 FEW015 M02/M05 Q0995 NOSIG

METARs EXPIRÉS :
  • 230420Z 13009KT 110V170 8000 FEW015 M02/M04 Q0996 NOSIG
  • 230350Z 13008KT 110V170 8000 SCT015 M02/M04 Q0996 NOSIG
  • 230320Z 14009KT 100V190 8000 SCT015 M02/M04 Q0996 NOSIG
  • 230250Z 13009KT 8000 FEW010 BKN015 M02/M04 Q0996 TEMPO BKN009
  • 230220Z 13009KT 8000 FEW010 BKN015 M02/M04 Q0997 TEMPO BKN009

TAF TAF EBLG
Valide du 23 à 00h jusqu'au 24 à 06h UTC


222320Z 2300/2406 16008KT 8000 SCT012
PROB30
TEMPO 2300/2303 BKN011
BECMG 2314/2316 BKN007
TEMPO 2317/2404 2000 SN BKN004
Pas de NOTAMs connus pour ce terrain.



MET'MAP, la Météo Aéronautique d'un coup d'oeil ! - Copyright ORBIFLY Décembre 2007 - Disclaimer

ORBIFLY MET'MAP TEAM :

Programmation & Développement : Alexandra Zaïnal
Conception & Développement : Baudouin d'Aumeries
Co-Programmation & Développement : Marc-Olivier Méhu
Soutien technique & logistique : Manuel Goepfert

Contact : metmap@orbifly.com




SOURCES & CREDITS :

   NOAA